createdAt,value
2019-03-25T00:00:26.079Z,1014.77
2019-03-25T00:00:52.241Z,1014.66
2019-03-25T00:01:18.549Z,1014.67
2019-03-25T00:01:44.745Z,1014.66
2019-03-25T00:02:10.888Z,1014.66
2019-03-25T00:02:37.066Z,1014.69
2019-03-25T00:03:03.279Z,1014.68
2019-03-25T00:03:29.411Z,1014.7
2019-03-25T00:03:55.570Z,1014.68
2019-03-25T00:04:21.708Z,1014.63
2019-03-25T00:04:47.889Z,1014.61
2019-03-25T00:05:14.014Z,1014.59
2019-03-25T00:05:40.203Z,1014.64
2019-03-25T00:06:06.340Z,1014.57
2019-03-25T00:06:32.566Z,1014.56
2019-03-25T00:06:58.696Z,1014.55
2019-03-25T00:07:24.792Z,1014.58
2019-03-25T00:07:50.898Z,1014.56
2019-03-25T00:08:17.022Z,1014.56
2019-03-25T00:08:43.145Z,1014.57
2019-03-25T00:09:11.434Z,1014.56
2019-03-25T00:09:37.615Z,1014.55
2019-03-25T00:10:03.772Z,1014.48
2019-03-25T00:10:29.931Z,1014.48
2019-03-25T00:10:56.098Z,1014.49
2019-03-25T00:11:22.305Z,1014.48
2019-03-25T00:11:48.413Z,1014.42
2019-03-25T00:12:14.539Z,1014.46
2019-03-25T00:12:40.701Z,1014.47
2019-03-25T00:13:06.843Z,1014.48
2019-03-25T00:13:32.923Z,1014.45
2019-03-25T00:13:59.028Z,1014.48
2019-03-25T00:14:25.145Z,1014.46
2019-03-25T00:14:51.251Z,1014.42
2019-03-25T00:15:17.461Z,1014.43
2019-03-25T00:15:43.597Z,1014.45
2019-03-25T00:16:10.789Z,1014.4
2019-03-25T00:16:36.882Z,1014.38
2019-03-25T00:17:03.034Z,1014.39
2019-03-25T00:17:29.172Z,1014.41
2019-03-25T00:17:55.293Z,1014.37
2019-03-25T00:18:21.476Z,1014.38
2019-03-25T00:18:47.633Z,1014.37
2019-03-25T00:19:13.814Z,1014.39
2019-03-25T00:19:39.932Z,1014.34
2019-03-25T00:20:06.039Z,1014.36
2019-03-25T00:20:32.147Z,1014.33
2019-03-25T00:20:58.251Z,1014.32
2019-03-25T00:21:24.361Z,1014.3
2019-03-25T00:21:50.472Z,1014.31
2019-03-25T00:22:16.585Z,1014.3
2019-03-25T00:22:42.688Z,1014.28
2019-03-25T00:23:08.794Z,1014.33
2019-03-25T00:23:34.902Z,1014.3
2019-03-25T00:24:01.004Z,1014.28
2019-03-25T00:24:37.804Z,1014.27
2019-03-25T00:24:54.263Z,1014.25
2019-03-25T00:25:20.365Z,1014.21
2019-03-25T00:25:46.553Z,1014.17
2019-03-25T00:26:12.667Z,1014.18
2019-03-25T00:26:38.771Z,1014.2
2019-03-25T00:27:04.877Z,1014.14
2019-03-25T00:27:30.975Z,1014.16
2019-03-25T00:27:57.114Z,1014.15
2019-03-25T00:28:24.210Z,1014.14
2019-03-25T00:28:50.320Z,1014.13
2019-03-25T00:29:16.422Z,1014.13
2019-03-25T00:29:42.533Z,1014.1
2019-03-25T00:30:08.639Z,1014.09
2019-03-25T00:30:34.780Z,1014.09
2019-03-25T00:31:00.891Z,1014.06
2019-03-25T00:31:26.998Z,1014.04
2019-03-25T00:31:53.105Z,1014.07
2019-03-25T00:32:19.243Z,1014.07
2019-03-25T00:32:45.357Z,1014.04
2019-03-25T00:33:11.485Z,1014.06
2019-03-25T00:33:37.593Z,1014.02
2019-03-25T00:34:03.744Z,1014.03
2019-03-25T00:34:29.801Z,1013.97
2019-03-25T00:34:55.911Z,1013.96
2019-03-25T00:35:22.017Z,1013.96
2019-03-25T00:35:48.149Z,1013.95
2019-03-25T00:36:14.262Z,1013.93
2019-03-25T00:36:40.369Z,1013.92
2019-03-25T00:37:06.478Z,1013.92
2019-03-25T00:37:32.583Z,1013.9
2019-03-25T00:37:58.690Z,1013.96
2019-03-25T00:38:24.854Z,1013.89
2019-03-25T00:38:50.955Z,1013.88
2019-03-25T00:39:17.092Z,1013.9
2019-03-25T00:39:43.201Z,1013.9
2019-03-25T00:40:09.311Z,1013.79
2019-03-25T00:40:35.425Z,1013.79
2019-03-25T00:41:01.523Z,1013.86
2019-03-25T00:41:27.625Z,1013.84
2019-03-25T00:41:53.733Z,1013.85
2019-03-25T00:42:19.863Z,1013.83
2019-03-25T00:42:45.973Z,1013.74
2019-03-25T00:43:12.079Z,1013.81
2019-03-25T00:43:38.188Z,1013.73
2019-03-25T00:44:04.293Z,1013.77
2019-03-25T00:44:30.402Z,1013.77
2019-03-25T00:44:56.514Z,1013.72
2019-03-25T00:45:22.654Z,1013.75
2019-03-25T00:45:48.753Z,1013.74
2019-03-25T00:46:14.863Z,1013.78
2019-03-25T00:46:40.969Z,1013.68
2019-03-25T00:47:07.085Z,1013.65
2019-03-25T00:47:33.194Z,1013.67
2019-03-25T00:47:59.300Z,1013.63
2019-03-25T00:48:25.450Z,1013.64
2019-03-25T00:48:51.552Z,1013.65
2019-03-25T00:49:17.660Z,1013.69
2019-03-25T00:49:43.789Z,1013.7
2019-03-25T00:50:09.897Z,1013.64
2019-03-25T00:50:36.037Z,1013.63
2019-03-25T00:51:02.144Z,1013.67
2019-03-25T00:51:28.274Z,1013.6
2019-03-25T00:51:54.388Z,1013.65
2019-03-25T00:52:20.527Z,1013.61
2019-03-25T00:52:46.628Z,1013.58
2019-03-25T00:53:12.784Z,1013.6
2019-03-25T00:53:38.875Z,1013.54
2019-03-25T00:54:05.015Z,1013.62
2019-03-25T00:54:31.126Z,1013.58
2019-03-25T00:54:59.211Z,1013.56
2019-03-25T00:55:25.346Z,1013.55
2019-03-25T00:55:51.451Z,1013.49
2019-03-25T00:56:17.598Z,1013.56
2019-03-25T00:56:43.699Z,1013.51
2019-03-25T00:57:09.807Z,1013.51
2019-03-25T00:57:35.918Z,1013.49
2019-03-25T00:58:02.023Z,1013.46
2019-03-25T00:58:28.128Z,1013.46
2019-03-25T00:58:54.270Z,1013.45
2019-03-25T00:59:20.373Z,1013.48
2019-03-25T00:59:48.870Z,1013.44
2019-03-25T01:00:13.588Z,1013.41
2019-03-25T01:00:39.707Z,1013.43
2019-03-25T01:01:05.841Z,1013.37
2019-03-25T01:01:31.948Z,1013.29
2019-03-25T01:01:58.060Z,1013.37
2019-03-25T01:02:24.173Z,1013.41
2019-03-25T01:02:50.332Z,1013.35
2019-03-25T01:03:16.441Z,1013.4
2019-03-25T01:03:42.542Z,1013.34
2019-03-25T01:04:08.657Z,1013.3
2019-03-25T01:04:34.760Z,1013.37
2019-03-25T01:05:00.873Z,1013.34
2019-03-25T01:05:26.975Z,1013.35
2019-03-25T01:05:53.083Z,1013.34
2019-03-25T01:06:19.190Z,1013.34
2019-03-25T01:06:45.296Z,1013.3
2019-03-25T01:07:11.405Z,1013.23
2019-03-25T01:07:37.517Z,1013.29
2019-03-25T01:08:03.647Z,1013.21
2019-03-25T01:08:29.749Z,1013.2
2019-03-25T01:08:55.859Z,1013.14
2019-03-25T01:09:21.996Z,1013.22
2019-03-25T01:09:48.136Z,1013.16
2019-03-25T01:10:14.267Z,1013.3
2019-03-25T01:10:40.372Z,1013.14
2019-03-25T01:11:06.481Z,1013.14
2019-03-25T01:11:32.590Z,1013.17
2019-03-25T01:11:59.991Z,1013.1
2019-03-25T01:12:26.126Z,1013.25
2019-03-25T01:12:52.237Z,1013.22
2019-03-25T01:13:18.344Z,1013.14
2019-03-25T01:13:44.483Z,1013.15
2019-03-25T01:14:10.593Z,1013.18
2019-03-25T01:14:36.698Z,1013.15
2019-03-25T01:15:02.812Z,1013.18
2019-03-25T01:15:28.918Z,1013.14
2019-03-25T01:15:55.028Z,1013.22
2019-03-25T01:16:21.129Z,1013.2
2019-03-25T01:16:47.234Z,1013.12
2019-03-25T01:17:13.377Z,1013.13
2019-03-25T01:17:39.484Z,1013.11
2019-03-25T01:18:16.069Z,1013.08
2019-03-25T01:18:33.679Z,1013.13
2019-03-25T01:18:59.785Z,1013.07
2019-03-25T01:19:25.895Z,1013.08
2019-03-25T01:19:51.999Z,1013.06
2019-03-25T01:20:18.221Z,1013.1
2019-03-25T01:20:44.468Z,1013.06
2019-03-25T01:21:10.577Z,1013.07
2019-03-25T01:21:36.702Z,1013.04
2019-03-25T01:22:02.798Z,1013.06
2019-03-25T01:22:28.908Z,1013.01
2019-03-25T01:22:55.014Z,1012.98
2019-03-25T01:23:21.126Z,1013.04
2019-03-25T01:23:47.234Z,1013.01
2019-03-25T01:24:13.347Z,1012.91
2019-03-25T01:24:39.451Z,1012.98
2019-03-25T01:25:07.562Z,1012.96
2019-03-25T01:25:33.706Z,1012.95
2019-03-25T01:25:59.835Z,1012.95
2019-03-25T01:26:25.941Z,1012.96
2019-03-25T01:26:52.055Z,1012.98
2019-03-25T01:27:18.160Z,1012.91
2019-03-25T01:27:44.254Z,1012.91
2019-03-25T01:28:10.397Z,1012.95
2019-03-25T01:28:36.503Z,1013
2019-03-25T01:29:02.640Z,1012.96
2019-03-25T01:29:28.748Z,1012.92
2019-03-25T01:29:54.887Z,1012.88
2019-03-25T01:30:21.083Z,1012.84
2019-03-25T01:30:47.214Z,1012.92
2019-03-25T01:31:13.327Z,1012.92
2019-03-25T01:31:39.434Z,1012.87
2019-03-25T01:32:05.543Z,1012.82
2019-03-25T01:32:31.653Z,1012.78
2019-03-25T01:32:57.762Z,1012.77
2019-03-25T01:33:23.934Z,1012.78
2019-03-25T01:33:50.007Z,1012.86
2019-03-25T01:34:16.145Z,1012.84
2019-03-25T01:34:42.285Z,1012.84
2019-03-25T01:35:08.381Z,1012.82
2019-03-25T01:35:34.540Z,1012.83
2019-03-25T01:36:00.646Z,1012.81
2019-03-25T01:36:26.756Z,1012.84
2019-03-25T01:36:52.860Z,1012.92
2019-03-25T01:37:18.965Z,1012.77
2019-03-25T01:37:45.069Z,1012.76
2019-03-25T01:38:11.210Z,1012.71
2019-03-25T01:38:37.313Z,1012.67
2019-03-25T01:39:03.415Z,1012.75
2019-03-25T01:39:29.572Z,1012.71
2019-03-25T01:39:55.680Z,1012.7
2019-03-25T01:40:21.813Z,1012.72
2019-03-25T01:40:47.918Z,1012.67
2019-03-25T01:41:14.056Z,1012.74
2019-03-25T01:41:40.200Z,1012.82
2019-03-25T01:42:06.302Z,1012.69
2019-03-25T01:42:32.504Z,1012.7
2019-03-25T01:42:58.659Z,1012.71
2019-03-25T01:43:24.770Z,1012.6
2019-03-25T01:43:50.874Z,1012.7
2019-03-25T01:44:16.986Z,1012.73
2019-03-25T01:44:43.118Z,1012.73
2019-03-25T01:45:09.221Z,1012.76
2019-03-25T01:45:35.334Z,1012.72
2019-03-25T01:46:01.444Z,1012.73
2019-03-25T01:46:27.555Z,1012.77
2019-03-25T01:46:53.665Z,1012.67
2019-03-25T01:47:19.775Z,1012.73
2019-03-25T01:47:45.931Z,1012.72
2019-03-25T01:48:12.022Z,1012.65
2019-03-25T01:48:38.128Z,1012.71
2019-03-25T01:49:04.246Z,1012.71
2019-03-25T01:49:30.378Z,1012.67
2019-03-25T01:49:56.527Z,1012.68
2019-03-25T01:50:22.643Z,1012.65
2019-03-25T01:50:48.750Z,1012.53
2019-03-25T01:51:14.850Z,1012.6
2019-03-25T01:51:40.965Z,1012.48
2019-03-25T01:52:07.106Z,1012.57
2019-03-25T01:52:33.235Z,1012.59
2019-03-25T01:52:59.344Z,1012.62
2019-03-25T01:53:25.502Z,1012.57
2019-03-25T01:53:51.615Z,1012.55
2019-03-25T01:54:17.721Z,1012.64
2019-03-25T01:54:43.828Z,1012.48
2019-03-25T01:55:13.569Z,1012.51
2019-03-25T01:55:38.049Z,1012.51
2019-03-25T01:56:04.162Z,1012.49
2019-03-25T01:56:30.272Z,1012.59
2019-03-25T01:56:56.404Z,1012.47
2019-03-25T01:57:22.508Z,1012.54
2019-03-25T01:57:48.616Z,1012.47
2019-03-25T01:58:14.728Z,1012.55
2019-03-25T01:58:40.861Z,1012.48
2019-03-25T01:59:06.959Z,1012.45
2019-03-25T01:59:33.067Z,1012.38
2019-03-25T01:59:59.169Z,1012.48
2019-03-25T02:00:25.283Z,1012.42
2019-03-25T02:00:51.381Z,1012.4
2019-03-25T02:01:17.490Z,1012.42
2019-03-25T02:01:43.596Z,1012.35
2019-03-25T02:02:09.698Z,1012.36
2019-03-25T02:02:35.812Z,1012.35
2019-03-25T02:03:01.917Z,1012.28
2019-03-25T02:03:28.034Z,1012.38
2019-03-25T02:03:54.163Z,1012.28
2019-03-25T02:04:20.276Z,1012.44
2019-03-25T02:04:46.373Z,1012.34
2019-03-25T02:05:12.508Z,1012.33
2019-03-25T02:05:38.616Z,1012.37
2019-03-25T02:06:04.752Z,1012.35
2019-03-25T02:06:30.866Z,1012.33
2019-03-25T02:06:56.970Z,1012.3
2019-03-25T02:07:23.113Z,1012.38
2019-03-25T02:07:49.222Z,1012.29
2019-03-25T02:08:15.329Z,1012.3
2019-03-25T02:08:41.438Z,1012.34
2019-03-25T02:09:07.569Z,1012.26
2019-03-25T02:09:33.701Z,1012.36
2019-03-25T02:09:59.812Z,1012.24
2019-03-25T02:10:25.917Z,1012.23
2019-03-25T02:10:52.025Z,1012.26
2019-03-25T02:11:18.129Z,1012.29
2019-03-25T02:11:44.239Z,1012.19
2019-03-25T02:12:10.356Z,1012.13
2019-03-25T02:12:36.458Z,1012.18
2019-03-25T02:13:02.594Z,1012.22
2019-03-25T02:13:28.702Z,1012.17
2019-03-25T02:13:54.807Z,1012.18
2019-03-25T02:14:20.951Z,1012.21
2019-03-25T02:14:47.084Z,1012.18
2019-03-25T02:15:13.194Z,1012.17
2019-03-25T02:15:39.302Z,1012.14
2019-03-25T02:16:05.397Z,1012.07
2019-03-25T02:16:31.511Z,1012.16
2019-03-25T02:16:57.614Z,1012.09
2019-03-25T02:17:23.723Z,1012.06
2019-03-25T02:17:49.822Z,1012.09
2019-03-25T02:18:15.942Z,1012.01
2019-03-25T02:18:42.070Z,1012
2019-03-25T02:19:08.186Z,1011.95
2019-03-25T02:19:34.317Z,1011.95
2019-03-25T02:20:00.445Z,1012.07
2019-03-25T02:20:28.569Z,1011.93
2019-03-25T02:20:54.706Z,1011.96
2019-03-25T02:21:20.837Z,1012.01
2019-03-25T02:21:46.975Z,1011.98
2019-03-25T02:22:13.108Z,1012
2019-03-25T02:22:39.464Z,1011.98
2019-03-25T02:23:06.035Z,1011.92
2019-03-25T02:23:32.212Z,1011.85
2019-03-25T02:23:58.318Z,1011.99
2019-03-25T02:24:24.456Z,1011.94
2019-03-25T02:24:50.585Z,1011.85
2019-03-25T02:25:25.100Z,1011.84
2019-03-25T02:25:44.811Z,1011.87
2019-03-25T02:26:10.948Z,1011.87
2019-03-25T02:26:37.053Z,1011.76
2019-03-25T02:27:03.162Z,1011.68
2019-03-25T02:27:29.264Z,1011.74
2019-03-25T02:27:55.403Z,1011.68
2019-03-25T02:28:21.561Z,1011.78
2019-03-25T02:28:47.707Z,1011.69
2019-03-25T02:29:13.815Z,1011.7
2019-03-25T02:29:39.922Z,1011.72
2019-03-25T02:30:06.064Z,1011.75
2019-03-25T02:30:32.226Z,1011.76
2019-03-25T02:30:58.369Z,1011.84
2019-03-25T02:31:24.535Z,1011.84
2019-03-25T02:31:50.677Z,1011.82
2019-03-25T02:32:16.847Z,1011.82
2019-03-25T02:32:42.977Z,1011.82
2019-03-25T02:33:09.105Z,1011.84
2019-03-25T02:33:35.226Z,1011.82
2019-03-25T02:34:01.337Z,1011.8
2019-03-25T02:34:27.504Z,1011.78
2019-03-25T02:34:53.610Z,1011.68
2019-03-25T02:35:19.720Z,1011.76
2019-03-25T02:35:45.857Z,1011.75
2019-03-25T02:36:12.020Z,1011.7
2019-03-25T02:36:38.164Z,1011.7
2019-03-25T02:37:04.350Z,1011.73
2019-03-25T02:37:30.465Z,1011.69
2019-03-25T02:37:56.568Z,1011.69
2019-03-25T02:38:22.705Z,1011.69
2019-03-25T02:38:48.834Z,1011.67
2019-03-25T02:39:14.949Z,1011.73
2019-03-25T02:39:41.101Z,1011.7
2019-03-25T02:40:07.231Z,1011.68
2019-03-25T02:40:33.370Z,1011.66
2019-03-25T02:40:59.505Z,1011.64
2019-03-25T02:41:25.618Z,1011.68
2019-03-25T02:41:51.744Z,1011.63
2019-03-25T02:42:17.852Z,1011.64
2019-03-25T02:42:43.953Z,1011.56
2019-03-25T02:43:10.076Z,1011.61
2019-03-25T02:43:36.234Z,1011.59
2019-03-25T02:44:02.340Z,1011.67
2019-03-25T02:44:28.469Z,1011.65
2019-03-25T02:44:54.632Z,1011.55
2019-03-25T02:45:20.762Z,1011.56
2019-03-25T02:45:46.925Z,1011.63
2019-03-25T02:46:13.063Z,1011.62
2019-03-25T02:46:39.227Z,1011.54
2019-03-25T02:47:05.380Z,1011.59
2019-03-25T02:47:31.504Z,1011.55
2019-03-25T02:47:57.612Z,1011.6
2019-03-25T02:48:23.746Z,1011.6
2019-03-25T02:48:49.853Z,1011.59
2019-03-25T02:49:16.054Z,1011.55
2019-03-25T02:49:42.193Z,1011.5
2019-03-25T02:50:08.330Z,1011.55
2019-03-25T02:50:34.462Z,1011.57
2019-03-25T02:51:00.602Z,1011.7
2019-03-25T02:51:26.767Z,1011.58
2019-03-25T02:51:52.870Z,1011.67
2019-03-25T02:52:19.001Z,1011.64
2019-03-25T02:52:45.131Z,1011.65
2019-03-25T02:53:11.246Z,1011.63
2019-03-25T02:53:37.441Z,1011.63
2019-03-25T02:54:03.587Z,1011.72
2019-03-25T02:54:29.688Z,1011.67
2019-03-25T02:54:55.857Z,1011.67
2019-03-25T02:55:22.017Z,1011.74
2019-03-25T02:55:50.144Z,1011.69
2019-03-25T02:56:16.254Z,1011.77
2019-03-25T02:56:42.451Z,1011.82
2019-03-25T02:57:08.585Z,1011.8
2019-03-25T02:57:34.715Z,1011.79
2019-03-25T02:58:00.867Z,1011.72
2019-03-25T02:58:27.031Z,1011.7
2019-03-25T02:58:53.194Z,1011.82
2019-03-25T02:59:19.367Z,1011.68
2019-03-25T02:59:45.562Z,1011.72
2019-03-25T03:00:11.637Z,1011.65
2019-03-25T03:00:37.824Z,1011.75
2019-03-25T03:01:03.955Z,1011.77
2019-03-25T03:01:30.098Z,1011.81
2019-03-25T03:01:56.278Z,1011.75
2019-03-25T03:02:22.443Z,1011.77
2019-03-25T03:02:48.582Z,1011.72
2019-03-25T03:03:14.690Z,1011.8
2019-03-25T03:03:40.829Z,1011.7
2019-03-25T03:04:06.993Z,1011.73
2019-03-25T03:04:33.127Z,1011.73
2019-03-25T03:04:59.292Z,1011.7
2019-03-25T03:05:25.448Z,1011.75
2019-03-25T03:05:51.630Z,1011.73
2019-03-25T03:06:17.795Z,1011.77
2019-03-25T03:06:43.859Z,1011.75
2019-03-25T03:07:09.965Z,1011.82
2019-03-25T03:07:36.102Z,1011.84
2019-03-25T03:08:02.244Z,1011.85
2019-03-25T03:08:28.388Z,1011.84
2019-03-25T03:08:55.488Z,1011.83
2019-03-25T03:09:21.628Z,1011.8
2019-03-25T03:09:47.762Z,1011.84
2019-03-25T03:10:13.869Z,1011.94
2019-03-25T03:10:40.033Z,1011.91
2019-03-25T03:11:06.233Z,1011.88
2019-03-25T03:11:32.456Z,1011.93
2019-03-25T03:11:58.653Z,1011.96
2019-03-25T03:12:24.787Z,1011.97
2019-03-25T03:12:50.882Z,1012
2019-03-25T03:13:17.019Z,1011.95
2019-03-25T03:13:43.155Z,1011.99
2019-03-25T03:14:09.281Z,1012.01
2019-03-25T03:14:36.402Z,1012.06
2019-03-25T03:15:02.606Z,1012.07
2019-03-25T03:15:28.737Z,1012.13
2019-03-25T03:15:54.843Z,1012.06
2019-03-25T03:16:21.007Z,1012.04
2019-03-25T03:16:47.112Z,1012.01
2019-03-25T03:17:13.272Z,1012
2019-03-25T03:17:39.387Z,1012.09
2019-03-25T03:18:05.522Z,1012.08
2019-03-25T03:18:31.654Z,1012.12
2019-03-25T03:18:57.765Z,1012.13
2019-03-25T03:19:23.897Z,1012.21
2019-03-25T03:19:50.059Z,1012.13
2019-03-25T03:20:16.412Z,1012.28
2019-03-25T03:20:42.586Z,1012.18
2019-03-25T03:21:08.718Z,1012.23
2019-03-25T03:21:34.830Z,1012.23
2019-03-25T03:22:00.934Z,1012.15
2019-03-25T03:22:27.041Z,1012.29
2019-03-25T03:22:53.179Z,1012.26
2019-03-25T03:23:19.311Z,1012.28
2019-03-25T03:23:45.445Z,1012.23
2019-03-25T03:24:11.618Z,1012.19
2019-03-25T03:24:37.753Z,1012.25
2019-03-25T03:25:03.853Z,1012.23
2019-03-25T03:25:29.960Z,1012.21
2019-03-25T03:25:59.033Z,1012.14
2019-03-25T03:26:25.189Z,1012.21
2019-03-25T03:26:51.294Z,1012.16
2019-03-25T03:27:17.438Z,1012.19
2019-03-25T03:27:44.524Z,1012.14
2019-03-25T03:28:10.660Z,1012.19
2019-03-25T03:28:36.792Z,1012.16
2019-03-25T03:29:02.923Z,1012.22
2019-03-25T03:29:29.037Z,1012.17
2019-03-25T03:29:55.189Z,1012.22
2019-03-25T03:30:21.810Z,1012.23
2019-03-25T03:30:47.972Z,1012.16
2019-03-25T03:31:14.178Z,1012.19
2019-03-25T03:31:40.379Z,1012.13
2019-03-25T03:32:06.682Z,1012.17
2019-03-25T03:32:32.913Z,1012.17
2019-03-25T03:32:59.031Z,1012.14
2019-03-25T03:33:25.167Z,1012.15
2019-03-25T03:33:51.327Z,1012.1
2019-03-25T03:34:17.520Z,1012.14
2019-03-25T03:34:43.661Z,1012.09
2019-03-25T03:35:10.039Z,1012.07
2019-03-25T03:35:36.152Z,1012.15
2019-03-25T03:36:02.476Z,1012.15
2019-03-25T03:36:28.634Z,1012.12
2019-03-25T03:36:54.765Z,1012.08
2019-03-25T03:37:20.910Z,1012.07
2019-03-25T03:37:47.010Z,1012.1
2019-03-25T03:38:13.119Z,1012.11
2019-03-25T03:38:39.312Z,1012.11
2019-03-25T03:39:05.412Z,1012.13
2019-03-25T03:39:31.608Z,1012.12
2019-03-25T03:39:57.788Z,1012.17
2019-03-25T03:40:23.941Z,1012.12
2019-03-25T03:40:50.110Z,1012.1
2019-03-25T03:41:16.255Z,1012.1
2019-03-25T03:41:42.414Z,1012.14
2019-03-25T03:42:08.574Z,1012.05
2019-03-25T03:42:34.716Z,1012.1
2019-03-25T03:43:00.874Z,1012.06
2019-03-25T03:43:26.993Z,1012.04
2019-03-25T03:43:53.187Z,1012.03
2019-03-25T03:44:20.290Z,1012.04
2019-03-25T03:44:46.419Z,1012.04
2019-03-25T03:45:12.568Z,1012
2019-03-25T03:45:38.797Z,1011.94
2019-03-25T03:46:04.901Z,1011.91
2019-03-25T03:46:31.044Z,1011.96
2019-03-25T03:46:57.144Z,1011.94
2019-03-25T03:47:23.374Z,1011.9
2019-03-25T03:47:49.505Z,1011.88
2019-03-25T03:48:15.642Z,1011.82
2019-03-25T03:48:41.776Z,1011.87
2019-03-25T03:49:07.953Z,1011.88
2019-03-25T03:49:34.117Z,1011.84
2019-03-25T03:50:00.465Z,1011.89
2019-03-25T03:50:27.550Z,1011.93
2019-03-25T03:50:53.650Z,1011.88
2019-03-25T03:51:19.817Z,1011.93
2019-03-25T03:51:45.953Z,1011.86
2019-03-25T03:52:12.063Z,1011.92
2019-03-25T03:52:38.222Z,1011.95
2019-03-25T03:53:04.448Z,1011.93
2019-03-25T03:53:30.567Z,1011.95
2019-03-25T03:53:56.704Z,1011.95
2019-03-25T03:54:22.870Z,1011.94
2019-03-25T03:54:49.002Z,1011.94
2019-03-25T03:55:15.143Z,1011.93
2019-03-25T03:55:41.302Z,1011.94
2019-03-25T03:56:13.183Z,1011.98
2019-03-25T03:56:36.537Z,1011.94
2019-03-25T03:57:02.710Z,1011.92
2019-03-25T03:57:28.872Z,1011.95
2019-03-25T03:57:54.979Z,1011.92
2019-03-25T03:58:21.141Z,1011.91
2019-03-25T03:58:47.250Z,1011.88
2019-03-25T03:59:13.360Z,1011.96
2019-03-25T03:59:39.469Z,1011.9
2019-03-25T04:00:05.599Z,1011.91
2019-03-25T04:00:31.717Z,1011.92
2019-03-25T04:00:57.844Z,1011.91
2019-03-25T04:01:23.978Z,1011.91
2019-03-25T04:01:50.191Z,1011.93
2019-03-25T04:02:16.363Z,1011.92
2019-03-25T04:02:42.505Z,1011.84
2019-03-25T04:03:08.677Z,1011.85
2019-03-25T04:03:34.847Z,1011.91
2019-03-25T04:04:01.038Z,1011.92
2019-03-25T04:04:27.146Z,1011.92
2019-03-25T04:04:53.255Z,1011.86
2019-03-25T04:05:19.385Z,1011.9
2019-03-25T04:05:45.562Z,1011.88
2019-03-25T04:06:11.736Z,1011.92
2019-03-25T04:06:37.907Z,1011.91
2019-03-25T04:07:04.073Z,1011.99
2019-03-25T04:07:30.217Z,1011.97
2019-03-25T04:07:56.396Z,1011.98
2019-03-25T04:08:22.528Z,1011.92
2019-03-25T04:08:48.667Z,1011.94
2019-03-25T04:09:14.823Z,1011.93
2019-03-25T04:09:40.924Z,1011.95
2019-03-25T04:10:07.063Z,1011.96
2019-03-25T04:10:33.201Z,1011.9
2019-03-25T04:10:59.335Z,1011.94
2019-03-25T04:11:25.475Z,1011.98
2019-03-25T04:11:51.602Z,1012
2019-03-25T04:12:17.751Z,1012.02
2019-03-25T04:12:43.945Z,1012.05
2019-03-25T04:13:10.134Z,1012.06
2019-03-25T04:13:36.219Z,1012.03
2019-03-25T04:14:02.333Z,1012.01
2019-03-25T04:14:28.434Z,1012.09
2019-03-25T04:14:54.595Z,1012.07
2019-03-25T04:15:20.729Z,1012.11
2019-03-25T04:15:46.921Z,1012.05
2019-03-25T04:16:14.020Z,1012.02
2019-03-25T04:16:40.154Z,1012.05
2019-03-25T04:17:06.266Z,1012.02
2019-03-25T04:17:32.396Z,1011.95
2019-03-25T04:17:58.531Z,1012.02
2019-03-25T04:18:24.696Z,1012.02
2019-03-25T04:18:50.805Z,1012
2019-03-25T04:19:16.944Z,1012
2019-03-25T04:19:43.058Z,1012.01
2019-03-25T04:20:09.190Z,1011.96
2019-03-25T04:20:35.328Z,1011.92
2019-03-25T04:21:01.463Z,1011.99
2019-03-25T04:21:27.591Z,1011.97
2019-03-25T04:21:53.737Z,1012.01
2019-03-25T04:22:19.922Z,1012.04
2019-03-25T04:22:46.093Z,1011.98
2019-03-25T04:23:12.260Z,1012.03
2019-03-25T04:23:38.374Z,1012
2019-03-25T04:24:05.521Z,1012.08
2019-03-25T04:24:31.691Z,1011.97
2019-03-25T04:24:57.787Z,1012
2019-03-25T04:25:23.897Z,1011.99
2019-03-25T04:25:50.065Z,1011.99
2019-03-25T04:26:27.548Z,1011.96
2019-03-25T04:26:45.242Z,1012
2019-03-25T04:27:11.382Z,1011.97
2019-03-25T04:27:37.529Z,1012.02
2019-03-25T04:28:03.655Z,1011.98
2019-03-25T04:28:29.763Z,1011.99
2019-03-25T04:28:55.915Z,1011.98
2019-03-25T04:29:22.131Z,1011.99
2019-03-25T04:29:48.300Z,1012
2019-03-25T04:30:14.436Z,1011.97
2019-03-25T04:30:40.635Z,1011.98
2019-03-25T04:31:06.888Z,1011.96
2019-03-25T04:31:32.996Z,1011.98
2019-03-25T04:31:59.095Z,1011.96
2019-03-25T04:32:25.230Z,1012
2019-03-25T04:32:51.337Z,1012.01
2019-03-25T04:33:17.446Z,1011.97
2019-03-25T04:33:43.590Z,1011.99
2019-03-25T04:34:09.694Z,1011.96
2019-03-25T04:34:35.859Z,1011.96
2019-03-25T04:35:01.966Z,1011.97
2019-03-25T04:35:28.124Z,1012
2019-03-25T04:35:54.236Z,1011.98
2019-03-25T04:36:20.394Z,1012
2019-03-25T04:36:46.558Z,1011.94
2019-03-25T04:37:12.672Z,1011.93
2019-03-25T04:37:38.804Z,1011.96
2019-03-25T04:38:04.945Z,1011.99
2019-03-25T04:38:31.077Z,1011.97
2019-03-25T04:38:57.185Z,1012
2019-03-25T04:39:23.340Z,1011.98
2019-03-25T04:39:49.472Z,1011.99
2019-03-25T04:40:15.582Z,1011.95
2019-03-25T04:40:41.721Z,1011.96
2019-03-25T04:41:07.952Z,1011.95
2019-03-25T04:41:34.066Z,1012.02
2019-03-25T04:42:00.194Z,1012
2019-03-25T04:42:26.301Z,1012
2019-03-25T04:42:52.503Z,1012.03
2019-03-25T04:43:18.625Z,1012.06
2019-03-25T04:43:44.764Z,1012.06
2019-03-25T04:44:10.868Z,1012.02
2019-03-25T04:44:36.977Z,1012.04
2019-03-25T04:45:03.082Z,1012.02
2019-03-25T04:45:29.189Z,1012.05
2019-03-25T04:45:55.293Z,1012.02
2019-03-25T04:46:21.399Z,1012
2019-03-25T04:46:47.504Z,1012.05
2019-03-25T04:47:13.612Z,1012.05
2019-03-25T04:47:39.747Z,1012.03
2019-03-25T04:48:05.852Z,1012.07
2019-03-25T04:48:31.964Z,1012.02
2019-03-25T04:48:58.067Z,1012.03
2019-03-25T04:49:24.203Z,1012.04
2019-03-25T04:49:50.341Z,1012.01
2019-03-25T04:50:16.447Z,1012.02
2019-03-25T04:50:42.557Z,1012
2019-03-25T04:51:08.663Z,1011.97
2019-03-25T04:51:34.774Z,1011.99
2019-03-25T04:52:00.881Z,1011.94
2019-03-25T04:52:26.991Z,1011.94
2019-03-25T04:52:53.126Z,1012
2019-03-25T04:53:19.262Z,1012.04
2019-03-25T04:53:45.402Z,1012.02
2019-03-25T04:54:11.539Z,1011.97
2019-03-25T04:54:37.647Z,1012
2019-03-25T04:55:03.749Z,1012.05
2019-03-25T04:55:29.914Z,1012.03
2019-03-25T04:55:56.020Z,1012.02
2019-03-25T04:56:22.130Z,1011.99
2019-03-25T04:56:49.282Z,1011.99
2019-03-25T04:57:15.390Z,1012
2019-03-25T04:57:41.492Z,1012.01
2019-03-25T04:58:07.602Z,1012.06
2019-03-25T04:58:33.708Z,1012.06
2019-03-25T04:58:59.818Z,1012.01
2019-03-25T04:59:26.443Z,1012.07
2019-03-25T04:59:52.555Z,1012.04
2019-03-25T05:00:18.660Z,1012.03
2019-03-25T05:00:44.762Z,1012
2019-03-25T05:01:10.873Z,1012.03
2019-03-25T05:01:36.982Z,1011.98
2019-03-25T05:02:03.082Z,1012.01
2019-03-25T05:02:29.188Z,1012
2019-03-25T05:02:55.328Z,1012.05
2019-03-25T05:03:21.433Z,1012.05
2019-03-25T05:03:47.611Z,1012.05
2019-03-25T05:04:13.761Z,1012.04
2019-03-25T05:04:39.871Z,1012.08
2019-03-25T05:05:05.984Z,1012.11
2019-03-25T05:05:32.086Z,1012.06
2019-03-25T05:05:58.192Z,1012.1
2019-03-25T05:06:24.297Z,1012.04
2019-03-25T05:06:50.430Z,1012.05
2019-03-25T05:07:16.537Z,1012.03
2019-03-25T05:07:42.670Z,1012.07
2019-03-25T05:08:08.783Z,1012.11
2019-03-25T05:08:34.888Z,1012
2019-03-25T05:09:01.005Z,1012.04
2019-03-25T05:09:27.112Z,1012.03
2019-03-25T05:09:53.218Z,1012.04
2019-03-25T05:10:19.323Z,1012.06
2019-03-25T05:10:45.458Z,1012.08
2019-03-25T05:11:12.561Z,1012.06
2019-03-25T05:11:40.640Z,1012.06
2019-03-25T05:12:06.743Z,1012.07
2019-03-25T05:12:32.888Z,1012.06
2019-03-25T05:12:58.992Z,1012.03
2019-03-25T05:13:25.099Z,1012.06
2019-03-25T05:13:51.209Z,1012
2019-03-25T05:14:17.315Z,1012.02
2019-03-25T05:14:43.411Z,1012.01
2019-03-25T05:15:09.525Z,1012.01
2019-03-25T05:15:35.641Z,1012
2019-03-25T05:16:01.746Z,1012.01
2019-03-25T05:16:28.846Z,1012.01
2019-03-25T05:16:54.953Z,1012.01
2019-03-25T05:17:21.057Z,1012
2019-03-25T05:17:47.199Z,1011.99
2019-03-25T05:18:13.310Z,1011.98
2019-03-25T05:18:39.440Z,1012.03
2019-03-25T05:19:05.551Z,1012.02